Home > Products > Valid Products > TAF

000
FTPQ31 PGUM 282300
TAFPQ
TAF
PGUM 282338Z 2900/3006 05011KT P6SM VCSH FEW018 SCT040 SCT100
     FM290300 05011KT P6SM VCTS SCT018CB SCT040 BKN120
     FM290700 05011KT P6SM VCSH SCT018 SCT040 SCT100=



000
FTPQ31 PGUM 282300
TAFPQ
TAF
PGUM 282338Z 2900/3006 05011KT P6SM VCSH FEW018 SCT040 SCT100
     FM290300 05011KT P6SM VCTS SCT018CB SCT040 BKN120
     FM290700 05011KT P6SM VCSH SCT018 SCT040 SCT100=



000
FTPQ31 PGUM 281700
TAFPQ
TAF
PGUM 281720Z 2818/2924 05010KT P6SM VCSH FEW018 SCT040 SCT100=



000
FTPQ31 PGUM 281700
TAFPQ
TAF
PGUM 281720Z 2818/2924 05010KT P6SM VCSH FEW018 SCT040 SCT100=



000
FTPQ31 PGUM 281100
TAFPQ
TAF
PGUM 281120Z 2812/2918 VRB05KT P6SM VCSH FEW020 SCT050
     FM290000 06010KT P6SM VCSH FEW018 SCT040 SCT120=



000
FTPQ31 PGUM 281100
TAFPQ
TAF
PGUM 281120Z 2812/2918 VRB05KT P6SM VCSH FEW020 SCT050
     FM290000 06010KT P6SM VCSH FEW018 SCT040 SCT120=



000
FTPQ31 PGUM 280500
TAFPQ
TAF
PGUM 280520Z 2806/2912 07008KT P6SM VCSH SCT020 OVC250=



000
FTPQ31 PGUM 280500
TAFPQ
TAF
PGUM 280520Z 2806/2912 07008KT P6SM VCSH SCT020 OVC250=



000
FTPQ31 PGUM 272300
TAFPQ
TAF
PGUM 272335Z 2800/2906 07011KT P6SM VCSH SCT020 SCT050=



000
FTPQ31 PGUM 272300
TAFPQ
TAF
PGUM 272335Z 2800/2906 07011KT P6SM VCSH SCT020 SCT050=



000
FTPQ31 PGUM 271700
TAFPQ
TAF
PGUM 271720Z 2718/2824 08006KT P6SM VCSH FEW020 SCT050
     FM272300 07011KT P6SM VCSH FEW020 SCT050=



000
FTPQ31 PGUM 271700
TAFPQ
TAF
PGUM 271720Z 2718/2824 08006KT P6SM VCSH FEW020 SCT050
     FM272300 07011KT P6SM VCSH FEW020 SCT050=



000
FTPQ31 PGUM 271200 AAA
TAFPQ
TAF AMD
PGUM 271233Z 2713/2818 08007KT P6SM VCSH FEW020 SCT050
      TEMPO 2713/2715 5SM SHRA SCT016 BKN025=



000
FTPQ31 PGUM 271200 AAA
TAFPQ
TAF AMD
PGUM 271233Z 2713/2818 08007KT P6SM VCSH FEW020 SCT050
      TEMPO 2713/2715 5SM SHRA SCT016 BKN025=



000
FTPQ31 PGUM 271100
TAFPQ
TAF
PGUM 271120Z 2712/2818 08007KT P6SM VCSH FEW020 SCT050=



000
FTPQ31 PGUM 271100
TAFPQ
TAF
PGUM 271120Z 2712/2818 08007KT P6SM VCSH FEW020 SCT050=



000
FTPQ31 PGUM 270500
TAFPQ
TAF
PGUM 270531Z 2706/2812 10011KT P6SM VCSH FEW020 SCT050 SCT140=



000
FTPQ31 PGUM 270500
TAFPQ
TAF
PGUM 270531Z 2706/2812 10011KT P6SM VCSH FEW020 SCT050 SCT140=



000
FTPQ31 PGUM 262300
TAFPQ
TAF
PGUM 262325Z 2700/2806 10011KT P6SM VCSH FEW020 SCT050 SCT140=



000
FTPQ31 PGUM 262300
TAFPQ
TAF
PGUM 262325Z 2700/2806 10011KT P6SM VCSH FEW020 SCT050 SCT140=



000
FTPQ31 PGUM 262000 AAA
TAFPQ
TAF AMD
PGUM 262002Z 2620/2724 VRB06KT P6SM VCSH FEW018 SCT040 SCT120
     FM262300 07009KT P6SM VCSH FEW020 SCT050 SCT140=



000
FTPQ31 PGUM 262000 AAA
TAFPQ
TAF AMD
PGUM 262002Z 2620/2724 VRB06KT P6SM VCSH FEW018 SCT040 SCT120
     FM262300 07009KT P6SM VCSH FEW020 SCT050 SCT140=



000
FTPQ31 PGUM 261700
TAFPQ
TAF
PGUM 261720Z 2618/2724 VRB06KT P6SM VCSH FEW018 SCT040 SCT120
     FM262300 10009KT P6SM VCSH FEW020 SCT050 SCT140=



000
FTPQ31 PGUM 261700
TAFPQ
TAF
PGUM 261720Z 2618/2724 VRB06KT P6SM VCSH FEW018 SCT040 SCT120
     FM262300 10009KT P6SM VCSH FEW020 SCT050 SCT140=



000
FTPQ31 PGUM 261300 AAA
TAFPQ
TAF AMD
PGUM 261323Z 2613/2718 10008KT P6SM VCTS FEW016CB SCT040 BKN120
      TEMPO 2613/2614 -TSRA SCT014CB BKN030
     FM261400 10006KT P6SM VCSH FEW018 SCT050 SCT140=



000
FTPQ31 PGUM 261300 AAA
TAFPQ
TAF AMD
PGUM 261323Z 2613/2718 10008KT P6SM VCTS FEW016CB SCT040 BKN120
      TEMPO 2613/2614 -TSRA SCT014CB BKN030
     FM261400 10006KT P6SM VCSH FEW018 SCT050 SCT140=



000
FTPQ31 PGUM 261100
TAFPQ
TAF
PGUM 261120Z 2612/2718 10006KT P6SM VCSH FEW018 SCT050 SCT140
      TEMPO 2612/2614 -SHRA SCT014 BKN030=



000
FTPQ31 PGUM 261100
TAFPQ
TAF
PGUM 261120Z 2612/2718 10006KT P6SM VCSH FEW018 SCT050 SCT140
      TEMPO 2612/2614 -SHRA SCT014 BKN030=



000
FTPQ31 PGUM 260500
TAFPQ
TAF
PGUM 260537Z 2606/2712 11008KT P6SM VCSH SCT018 SCT140=



000
FTPQ31 PGUM 260500
TAFPQ
TAF
PGUM 260537Z 2606/2712 11008KT P6SM VCSH SCT018 SCT140=



    US Dept of Commerce
    National Oceanic and Atmospheric Administration
    National Weather Service
    1325 East West Highway
    Silver Spring, MD 20910
    Page Author: NWS Internet Services Team
Disclaimer
Information Quality
Credits
Glossary
Privacy Policy
Freedom of Information Act (FOIA)
About Us
Career Opportunities